This is the latest recevied weather packets stored in our database for station/object DL7MAP-13. If no packets are shown the sender has not sent any weather packets the latest 10 day(s).
| Time | Temp. | Humidity | Pressure | Rain* | Wind** | Luminosity | Snow |
|---|---|---|---|---|---|---|---|
| 1777761787 | 13.33° C | 65% | 1010 hPa | - | - | - | - |
| 1777760887 | 13.33° C | 65% | 1010.1 hPa | - | - | - | - |
| 1777759987 | 13.89° C | 63% | 1010.2 hPa | - | - | - | - |
| 1777759087 | 13.89° C | 61% | 1010.2 hPa | - | - | - | - |
| 1777758187 | 15.56° C | 56% | 1010.3 hPa | - | - | - | - |
| 1777757287 | 15.56° C | 55% | 1010.4 hPa | - | - | - | - |
| 1777756387 | 15.56° C | 54% | 1010.5 hPa | - | - | - | - |
| 1777755486 | 16.67° C | 51% | 1010.7 hPa | - | - | - | - |
| 1777754586 | 17.78° C | 47% | 1010.7 hPa | - | - | - | - |
| 1777753687 | 17.78° C | 46% | 1010.2 hPa | - | - | - | - |
| 1777752787 | 18.33° C | 45% | 1010.9 hPa | - | - | - | - |
| 1777751887 | 18.89° C | 43% | 1011 hPa | - | - | - | - |
| 1777750987 | 20° C | 40% | 1010.8 hPa | - | - | - | - |
| 1777750087 | 21.11° C | 37% | 1011.1 hPa | - | - | - | - |
| 1777749187 | 22.22° C | 34% | 1011.3 hPa | - | - | - | - |
| 1777748287 | 22.78° C | 33% | 1010.9 hPa | - | - | - | - |
| 1777747387 | 22.78° C | 32% | 1011 hPa | - | - | - | - |
| 1777746487 | 23.33° C | 31% | 1010.5 hPa | - | - | - | - |
| 1777745587 | 23.89° C | 30% | 1011.1 hPa | - | - | - | - |
| 1777744687 | 24.44° C | 29% | 1010.2 hPa | - | - | - | - |
| 1777743787 | 25° C | 28% | 1010.3 hPa | - | - | - | - |
| 1777742887 | 25.56° C | 27% | 1010.3 hPa | - | - | - | - |
| 1777741987 | 25.56° C | 26% | 1011.2 hPa | - | - | - | - |
| 1777741087 | 26.11° C | 27% | 1011.8 hPa | - | - | - | - |
| 1777740187 | 26.11° C | 26% | 1011.1 hPa | - | - | - | - |
* Rain since midnight (hover to see other rain measurements)
** Current wind speed in m/s (hover to see current wind gust speed)